Time,TemperatureF,DewpointF,PressureIn,WindDirection,WindDirectionDegrees,WindSpeedMPH,WindSpeedGustMPH,Humidity,HourlyPrecipIn,Conditions,Clouds,dailyrainin,SolarRadiationWatts/m^2,SoftwareType,DateUTC
2013-01-14 00:04:00,29.0,25.6,30.05,NE,49,0.0,0.0,87,0.00,BKN,,0.00,0.0,WeatherDisplay:10.37,2013-01-13 23:04:00,
2013-01-14 00:09:00,29.0,25.6,30.05,NE,49,0.8,1.1,87,0.00,BKN,,0.00,0.0,WeatherDisplay:10.37,2013-01-13 23:09:00,
2013-01-14 00:14:00,28.9,25.5,30.05,NE,49,0.0,0.0,87,0.00,BKN,,0.00,0.0,WeatherDisplay:10.37,2013-01-13 23:14:00,
2013-01-14 00:19:00,28.9,25.5,30.05,NE,49,0.4,3.5,87,0.00,BKN,,0.00,0.0,WeatherDisplay:10.37,2013-01-13 23:19:00,
2013-01-14 00:24:00,28.9,25.5,30.04,NE,49,0.2,2.0,87,0.00,BKN,,0.00,0.0,WeatherDisplay:10.37,2013-01-13 23:24:00,
2013-01-14 00:29:00,28.8,25.4,30.04,NE,49,0.9,0.0,87,0.00,BKN,,0.00,0.0,WeatherDisplay:10.37,2013-01-13 23:29:00,
2013-01-14 00:34:00,28.8,25.4,30.04,NE,49,0.4,2.3,87,0.00,BKN,,0.00,0.0,WeatherDisplay:10.37,2013-01-13 23:34:00,
2013-01-14 00:39:00,28.8,25.7,30.04,NE,49,0.0,0.0,88,0.00,BKN,,0.00,0.0,WeatherDisplay:10.37,2013-01-13 23:39:00,
2013-01-14 00:44:00,28.6,25.5,30.04,NE,49,0.0,0.0,88,0.00,BKN,,0.00,0.0,WeatherDisplay:10.37,2013-01-13 23:44:00,
2013-01-14 00:49:00,28.5,25.4,30.04,NE,49,0.0,0.0,88,0.00,BKN,,0.00,0.0,WeatherDisplay:10.37,2013-01-13 23:49:00,
2013-01-14 00:54:00,28.4,25.3,30.04,NE,49,0.0,0.0,88,0.00,BKN,,0.00,0.0,WeatherDisplay:10.37,2013-01-13 23:54:00,
2013-01-14 00:59:00,28.3,25.2,30.04,NE,49,0.0,0.0,88,0.00,BKN,,0.00,0.0,WeatherDisplay:10.37,2013-01-13 23:59:00,
2013-01-14 01:04:00,28.3,25.2,30.04,NE,49,0.0,0.0,88,0.00,BKN,,0.00,0.0,WeatherDisplay:10.37,2013-01-14 00:04:00,
2013-01-14 01:09:00,28.3,25.2,30.04,NE,49,0.0,0.0,88,0.00,BKN,,0.00,0.0,WeatherDisplay:10.37,2013-01-14 00:09:00,
2013-01-14 01:14:00,28.2,25.1,30.04,NE,49,0.0,0.0,88,0.00,BKN,,0.00,0.0,WeatherDisplay:10.37,2013-01-14 00:14:00,
2013-01-14 01:19:00,28.2,25.4,30.04,NE,49,0.0,0.0,89,0.00,BKN,,0.00,0.0,WeatherDisplay:10.37,2013-01-14 00:19:00,
2013-01-14 01:24:00,28.2,25.4,30.04,NE,49,0.0,0.0,89,0.00,BKN,,0.00,0.0,WeatherDisplay:10.37,2013-01-14 00:24:00,
2013-01-14 01:29:00,28.1,25.3,30.04,NE,49,0.0,0.0,89,0.00,BKN,,0.00,0.0,WeatherDisplay:10.37,2013-01-14 00:29:00,
2013-01-14 01:34:00,28.0,25.2,30.04,NE,49,0.0,0.0,89,0.00,BKN,,0.00,0.0,WeatherDisplay:10.37,2013-01-14 00:34:00,
2013-01-14 01:39:00,27.9,25.1,30.04,NE,49,1.2,3.5,89,0.00,BKN,,0.00,0.0,WeatherDisplay:10.37,2013-01-14 00:39:00,
2013-01-14 01:44:00,27.9,25.1,30.04,NE,49,0.0,0.0,89,0.00,BKN,,0.00,0.0,WeatherDisplay:10.37,2013-01-14 00:44:00,
2013-01-14 01:49:00,28.0,25.2,30.04,NE,49,0.0,0.0,89,0.00,BKN,,0.00,0.0,WeatherDisplay:10.37,2013-01-14 00:49:00,
2013-01-14 01:54:00,28.1,25.3,30.03,NE,49,0.0,0.0,89,0.00,BKN,,0.00,0.0,WeatherDisplay:10.37,2013-01-14 00:54:00,
2013-01-14 01:59:00,28.1,25.3,30.03,NE,49,0.0,0.0,89,0.00,BKN,,0.00,0.0,WeatherDisplay:10.37,2013-01-14 00:59:00,
2013-01-14 02:04:00,28.2,25.6,30.03,NE,49,0.0,0.0,90,0.00,BKN,,0.00,0.0,WeatherDisplay:10.37,2013-01-14 01:04:00,
2013-01-14 02:09:00,28.3,25.7,30.03,NE,49,0.0,0.0,90,0.00,BKN,,0.00,0.0,WeatherDisplay:10.37,2013-01-14 01:09:00,
2013-01-14 02:14:00,28.3,25.7,30.03,NE,49,0.0,0.0,90,0.00,BKN,,0.00,0.0,WeatherDisplay:10.37,2013-01-14 01:14:00,
2013-01-14 02:19:00,28.4,25.6,30.03,NE,49,0.0,0.0,89,0.00,BKN,,0.00,0.0,WeatherDisplay:10.37,2013-01-14 01:19:00,
2013-01-14 02:24:00,28.5,25.7,30.03,NE,49,0.0,0.0,89,0.00,BKN,,0.00,0.0,WeatherDisplay:10.37,2013-01-14 01:24:00,
2013-01-14 02:29:00,28.5,25.7,30.03,NE,49,0.0,0.0,89,0.00,BKN,,0.00,0.0,WeatherDisplay:10.37,2013-01-14 01:29:00,
2013-01-14 02:34:00,28.4,25.6,30.03,NE,49,0.0,0.0,89,0.00,BKN,,0.00,0.0,WeatherDisplay:10.37,2013-01-14 01:34:00,
2013-01-14 02:39:00,28.4,25.6,30.03,NE,49,0.0,0.0,89,0.00,BKN,,0.00,0.0,WeatherDisplay:10.37,2013-01-14 01:39:00,
2013-01-14 02:44:00,28.2,25.4,30.03,NE,49,0.0,0.0,89,0.00,BKN,,0.00,0.0,WeatherDisplay:10.37,2013-01-14 01:44:00,
2013-01-14 02:49:00,28.1,25.3,30.03,NE,49,0.0,0.0,89,0.00,BKN,,0.00,0.0,WeatherDisplay:10.37,2013-01-14 01:49:00,
2013-01-14 02:54:00,28.0,25.2,30.03,NE,49,0.0,0.0,89,0.00,BKN,,0.00,0.0,WeatherDisplay:10.37,2013-01-14 01:54:00,
2013-01-14 02:59:00,27.9,25.1,30.03,NE,49,0.0,0.0,89,0.00,BKN,,0.00,0.0,WeatherDisplay:10.37,2013-01-14 01:59:00,
2013-01-14 03:04:00,27.8,25.0,30.03,NE,49,0.0,0.0,89,0.00,BKN,,0.00,0.0,WeatherDisplay:10.37,2013-01-14 02:04:00,
2013-01-14 03:09:00,27.8,25.2,30.03,NE,49,0.0,0.0,90,0.00,BKN,,0.00,0.0,WeatherDisplay:10.37,2013-01-14 02:09:00,
2013-01-14 03:14:00,27.8,25.2,30.02,NE,49,0.0,0.0,90,0.00,BKN,,0.00,0.0,WeatherDisplay:10.37,2013-01-14 02:14:00,
2013-01-14 03:19:00,27.8,25.2,30.02,NE,49,0.0,0.0,90,0.00,BKN,,0.00,0.0,WeatherDisplay:10.37,2013-01-14 02:19:00,
2013-01-14 03:24:00,27.8,25.2,30.02,NE,49,0.0,0.0,90,0.00,BKN,,0.00,0.0,WeatherDisplay:10.37,2013-01-14 02:24:00,
2013-01-14 03:29:00,27.7,25.1,30.02,NE,49,0.0,0.0,90,0.00,BKN,,0.00,0.0,WeatherDisplay:10.37,2013-01-14 02:29:00,
2013-01-14 03:34:00,27.6,25.0,30.02,NE,49,0.0,0.0,90,0.00,FEW,,0.00,0.0,WeatherDisplay:10.37,2013-01-14 02:34:00,
2013-01-14 03:39:00,27.4,24.8,30.02,NE,49,0.0,0.0,90,0.00,FEW,,0.00,0.0,WeatherDisplay:10.37,2013-01-14 02:39:00,
2013-01-14 03:44:00,27.3,24.7,30.02,NE,49,0.0,0.0,90,0.00,FEW,,0.00,0.0,WeatherDisplay:10.37,2013-01-14 02:44:00,
2013-01-14 03:49:00,27.3,24.7,30.02,NE,49,0.0,0.0,90,0.00,FEW,,0.00,0.0,WeatherDisplay:10.37,2013-01-14 02:49:00,
2013-01-14 03:54:00,27.2,24.6,30.02,NE,49,0.0,0.0,90,0.00,FEW,,0.00,0.0,WeatherDisplay:10.37,2013-01-14 02:54:00,
2013-01-14 03:59:00,27.2,24.6,30.02,NE,49,0.0,0.0,90,0.00,FEW,,0.00,0.0,WeatherDisplay:10.37,2013-01-14 02:59:00,
2013-01-14 04:04:00,27.2,24.6,30.02,NE,49,0.0,0.0,90,0.00,FEW,,0.00,0.0,WeatherDisplay:10.37,2013-01-14 03:04:00,
2013-01-14 04:09:00,27.2,24.6,30.02,NE,49,0.0,0.0,90,0.00,FEW,,0.00,0.0,WeatherDisplay:10.37,2013-01-14 03:09:00,
2013-01-14 04:14:00,27.1,24.5,30.02,NE,49,0.0,0.0,90,0.00,FEW,,0.00,0.0,WeatherDisplay:10.37,2013-01-14 03:14:00,
2013-01-14 04:19:00,26.9,24.3,30.01,NE,49,0.0,0.0,90,0.00,FEW,,0.00,0.0,WeatherDisplay:10.37,2013-01-14 03:19:00,
2013-01-14 04:24:00,26.8,24.2,30.01,NE,49,0.0,0.0,90,0.00,FEW,,0.00,0.0,WeatherDisplay:10.37,2013-01-14 03:24:00,
2013-01-14 04:29:00,26.7,24.1,30.01,NE,49,0.0,0.0,90,0.00,FEW,,0.00,0.0,WeatherDisplay:10.37,2013-01-14 03:29:00,
2013-01-14 04:34:00,26.7,24.1,30.01,NE,49,1.9,0.0,90,0.00,FEW,,0.00,0.0,WeatherDisplay:10.37,2013-01-14 03:34:00,
2013-01-14 04:39:00,26.9,24.6,30.01,NE,49,0.0,0.0,91,0.00,FEW,,0.00,0.0,WeatherDisplay:10.37,2013-01-14 03:39:00,
2013-01-14 04:44:00,26.8,24.5,30.00,NE,49,0.0,0.0,91,0.00,FEW,,0.00,0.0,WeatherDisplay:10.37,2013-01-14 03:44:00,
2013-01-14 04:49:00,26.9,24.6,30.00,NE,49,0.4,1.1,91,0.00,FEW,,0.00,0.0,WeatherDisplay:10.37,2013-01-14 03:49:00,
2013-01-14 04:54:00,26.8,24.2,30.00,NE,49,0.0,0.0,90,0.00,BKN,,0.00,0.0,WeatherDisplay:10.37,2013-01-14 03:54:00,
2013-01-14 04:59:00,26.9,24.3,30.00,NE,49,0.0,0.0,90,0.00,BKN,,0.00,0.0,WeatherDisplay:10.37,2013-01-14 03:59:00,
2013-01-14 05:04:00,26.9,24.3,30.00,NE,49,0.0,0.0,90,0.00,BKN,,0.00,0.0,WeatherDisplay:10.37,2013-01-14 04:04:00,
2013-01-14 05:09:00,26.8,24.5,30.00,NE,49,0.0,0.0,91,0.00,BKN,,0.00,0.0,WeatherDisplay:10.37,2013-01-14 04:09:00,
2013-01-14 05:14:00,26.8,24.2,30.00,NE,49,0.0,0.0,90,0.00,BKN,,0.00,0.0,WeatherDisplay:10.37,2013-01-14 04:14:00,
2013-01-14 05:19:00,26.8,24.5,30.00,NE,49,0.0,0.0,91,0.00,BKN,,0.00,0.0,WeatherDisplay:10.37,2013-01-14 04:19:00,
2013-01-14 05:24:00,26.8,24.2,30.00,NE,49,0.0,0.0,90,0.00,BKN,,0.00,0.0,WeatherDisplay:10.37,2013-01-14 04:24:00,
2013-01-14 05:29:00,26.8,24.5,29.99,NE,49,0.0,0.0,91,0.00,BKN,,0.00,0.0,WeatherDisplay:10.37,2013-01-14 04:29:00,
2013-01-14 05:34:00,26.8,24.5,29.99,NE,49,0.0,0.0,91,0.00,BKN,,0.00,0.0,WeatherDisplay:10.37,2013-01-14 04:34:00,
2013-01-14 05:39:00,26.9,24.6,29.99,NE,49,0.0,0.0,91,0.00,BKN,,0.00,0.0,WeatherDisplay:10.37,2013-01-14 04:39:00,
2013-01-14 05:44:00,26.9,24.6,29.99,NE,49,0.0,0.0,91,0.00,BKN,,0.00,0.0,WeatherDisplay:10.37,2013-01-14 04:44:00,
2013-01-14 05:49:00,26.9,24.6,29.99,NE,49,0.0,0.0,91,0.00,BKN,,0.00,0.0,WeatherDisplay:10.37,2013-01-14 04:49:00,
2013-01-14 05:54:00,27.0,24.7,29.99,NE,49,0.0,0.0,91,0.00,BKN,,0.00,0.0,WeatherDisplay:10.37,2013-01-14 04:54:00,
2013-01-14 05:59:00,27.0,24.7,29.99,NE,49,0.0,0.0,91,0.00,BKN,,0.00,0.0,WeatherDisplay:10.37,2013-01-14 04:59:00,
2013-01-14 06:00:00,27.0,24.7,29.99,NE,49,0.0,0.0,91,0.00,BKN,,0.00,0.0,WeatherDisplay:10.37,2013-01-14 05:00:00,
2013-01-14 06:02:00,27.0,24.7,29.99,NE,49,0.0,0.0,91,0.00,BKN,,0.00,0.0,WeatherDisplay:10.37,2013-01-14 05:02:00,
2013-01-14 06:03:00,27.0,24.7,29.99,NE,49,0.0,0.0,91,0.00,BKN,,0.00,0.0,WeatherDisplay:10.37,2013-01-14 05:03:00,
2013-01-14 06:08:00,27.0,24.4,29.99,NE,49,0.0,0.0,90,0.00,BKN,,0.00,0.0,WeatherDisplay:10.37,2013-01-14 05:08:00,
2013-01-14 06:13:00,27.0,24.4,29.99,NE,49,0.0,0.0,90,0.00,BKN,,0.00,0.0,WeatherDisplay:10.37,2013-01-14 05:13:00,
2013-01-14 06:18:00,26.9,24.3,29.99,NE,49,0.5,3.5,90,0.00,BKN,,0.00,0.0,WeatherDisplay:10.37,2013-01-14 05:18:00,
2013-01-14 06:23:00,26.9,24.3,29.99,NE,49,2.3,0.0,90,0.00,BKN,,0.00,0.0,WeatherDisplay:10.37,2013-01-14 05:23:00,
2013-01-14 06:28:00,26.8,24.2,29.98,NE,49,0.0,0.0,90,0.00,BKN,,0.00,0.0,WeatherDisplay:10.37,2013-01-14 05:28:00,
2013-01-14 06:33:00,26.7,24.1,29.98,NE,49,0.0,0.0,90,0.00,BKN,,0.00,0.0,WeatherDisplay:10.37,2013-01-14 05:33:00,
2013-01-14 06:38:00,26.6,24.0,29.98,NE,49,0.0,0.0,90,0.00,BKN,,0.00,0.0,WeatherDisplay:10.37,2013-01-14 05:38:00,
2013-01-14 06:43:00,26.5,23.9,29.98,NE,49,0.0,0.0,90,0.00,BKN,,0.00,0.0,WeatherDisplay:10.37,2013-01-14 05:43:00,
2013-01-14 06:48:00,26.4,23.8,29.98,NE,49,0.0,0.0,90,0.00,BKN,,0.00,0.0,WeatherDisplay:10.37,2013-01-14 05:48:00,
2013-01-14 06:53:00,26.3,23.7,29.98,NE,49,0.0,0.0,90,0.00,BKN,,0.00,0.0,WeatherDisplay:10.37,2013-01-14 05:53:00,
2013-01-14 06:58:00,26.1,23.5,29.98,NE,49,0.0,0.0,90,0.00,BKN,,0.00,0.0,WeatherDisplay:10.37,2013-01-14 05:58:00,
2013-01-14 07:03:00,25.9,23.4,29.98,NE,49,0.0,0.0,90,0.00,BKN,,0.00,0.0,WeatherDisplay:10.37,2013-01-14 06:03:00,
2013-01-14 07:08:00,25.8,23.3,29.98,NE,49,0.0,0.0,90,0.00,BKN,,0.00,0.0,WeatherDisplay:10.37,2013-01-14 06:08:00,
2013-01-14 07:13:00,25.6,23.1,29.98,NE,49,0.0,0.0,90,0.00,BKN,,0.00,0.0,WeatherDisplay:10.37,2013-01-14 06:13:00,
2013-01-14 07:18:00,25.5,23.0,29.98,NE,49,0.0,0.0,90,0.00,BKN,,0.00,0.0,WeatherDisplay:10.37,2013-01-14 06:18:00,
2013-01-14 07:23:00,25.4,22.9,29.98,NE,49,0.0,0.0,90,0.00,BKN,,0.00,0.0,WeatherDisplay:10.37,2013-01-14 06:23:00,
2013-01-14 07:28:00,25.3,22.8,29.98,NE,49,0.0,0.0,90,0.00,BKN,,0.00,0.0,WeatherDisplay:10.37,2013-01-14 06:28:00,
2013-01-14 07:33:00,25.1,22.6,29.98,NE,49,0.0,0.0,90,0.00,BKN,,0.00,0.0,WeatherDisplay:10.37,2013-01-14 06:33:00,
2013-01-14 07:38:00,25.0,22.7,29.98,NE,49,0.0,0.0,91,0.00,BKN,,0.00,0.0,WeatherDisplay:10.37,2013-01-14 06:38:00,
2013-01-14 07:43:00,24.9,22.6,29.97,NE,49,0.0,0.0,91,0.00,BKN,,0.00,0.0,WeatherDisplay:10.37,2013-01-14 06:43:00,
2013-01-14 07:48:00,24.9,22.6,29.97,NE,49,0.0,0.0,91,0.00,BKN,,0.00,0.0,WeatherDisplay:10.37,2013-01-14 06:48:00,
2013-01-14 07:53:00,24.8,22.5,29.97,NE,49,0.0,0.0,91,0.00,BKN,,0.00,0.0,WeatherDisplay:10.37,2013-01-14 06:53:00,
2013-01-14 07:58:00,24.7,22.4,29.97,NE,49,0.0,0.0,91,0.00,BKN,,0.00,0.0,WeatherDisplay:10.37,2013-01-14 06:58:00,
2013-01-14 08:03:00,24.5,22.2,29.98,NE,49,0.0,0.0,91,0.00,BKN,,0.00,0.0,WeatherDisplay:10.37,2013-01-14 07:03:00,
2013-01-14 08:08:00,24.5,22.2,29.97,NE,49,0.0,0.0,91,0.00,BKN,,0.00,0.0,WeatherDisplay:10.37,2013-01-14 07:08:00,
2013-01-14 08:13:00,24.5,22.2,29.97,NE,49,0.0,0.0,91,0.00,BKN,,0.00,0.0,WeatherDisplay:10.37,2013-01-14 07:13:00,
2013-01-14 08:19:00,24.5,22.2,29.97,NE,49,0.0,0.0,91,0.00,BKN,,0.00,0.0,WeatherDisplay:10.37,2013-01-14 07:19:00,
2013-01-14 08:24:00,24.5,22.5,29.97,NE,49,0.5,2.0,92,0.00,BKN,,0.00,0.0,WeatherDisplay:10.37,2013-01-14 07:24:00,
2013-01-14 08:29:00,24.5,22.5,29.97,NE,49,1.5,3.5,92,0.00,BKN,,0.00,0.0,WeatherDisplay:10.37,2013-01-14 07:29:00,
2013-01-14 08:34:00,24.5,22.5,29.98,NE,49,0.0,0.0,92,0.00,BKN,,0.00,0.0,WeatherDisplay:10.37,2013-01-14 07:34:00,
2013-01-14 08:39:00,24.5,22.5,29.98,NE,49,0.0,0.0,92,0.00,BKN,,0.00,0.0,WeatherDisplay:10.37,2013-01-14 07:39:00,
2013-01-14 08:44:00,24.5,22.5,29.97,NE,49,0.0,0.0,92,0.00,BKN,,0.00,7.0,WeatherDisplay:10.37,2013-01-14 07:44:00,
2013-01-14 08:49:00,24.5,22.5,29.97,NE,49,0.0,0.0,92,0.00,BKN,,0.00,12.0,WeatherDisplay:10.37,2013-01-14 07:49:00,
2013-01-14 08:54:00,24.6,22.6,29.97,NNE,32,0.0,0.0,92,0.00,BKN,,0.00,16.0,WeatherDisplay:10.37,2013-01-14 07:54:00,
2013-01-14 08:59:00,24.6,22.6,29.97,NNE,32,1.9,3.5,92,0.00,BKN,,0.00,23.0,WeatherDisplay:10.37,2013-01-14 07:59:00,
2013-01-14 09:04:00,24.5,22.5,29.97,NNE,32,0.0,0.0,92,0.00,BKN,,0.00,28.0,WeatherDisplay:10.37,2013-01-14 08:04:00,
2013-01-14 09:09:00,24.5,22.5,29.97,NNE,33,0.0,0.0,92,0.00,BKN,,0.00,32.0,WeatherDisplay:10.37,2013-01-14 08:09:00,
2013-01-14 09:14:00,24.6,22.6,29.97,NNE,33,0.0,0.0,92,0.00,BKN,,0.00,37.0,WeatherDisplay:10.37,2013-01-14 08:14:00,
2013-01-14 09:19:00,24.6,22.6,29.97,NNE,33,0.0,0.0,92,0.00,BKN,,0.00,49.0,WeatherDisplay:10.37,2013-01-14 08:19:00,
2013-01-14 09:24:00,24.7,22.9,29.97,NNE,33,0.0,0.0,93,0.00,BKN,,0.00,70.0,WeatherDisplay:10.37,2013-01-14 08:24:00,
2013-01-14 09:29:00,24.8,23.0,29.98,NNE,26,0.0,0.0,93,0.00,BKN,,0.00,83.0,WeatherDisplay:10.37,2013-01-14 08:29:00,
2013-01-14 09:34:00,24.9,23.1,29.97,NW,315,0.0,0.0,93,0.00,BKN,,0.00,97.0,WeatherDisplay:10.37,2013-01-14 08:34:00,
2013-01-14 09:39:00,25.0,23.2,29.97,NW,315,0.0,0.0,93,0.00,BKN,,0.00,86.0,WeatherDisplay:10.37,2013-01-14 08:39:00,
2013-01-14 09:44:00,25.1,23.3,29.96,NW,315,0.0,0.0,93,0.00,SCT,,0.00,93.0,WeatherDisplay:10.37,2013-01-14 08:44:00,
2013-01-14 09:49:00,25.1,23.3,29.96,NW,315,0.3,3.5,93,0.00,SCT,,0.00,100.0,WeatherDisplay:10.37,2013-01-14 08:49:00,
2013-01-14 09:54:00,25.3,23.5,29.96,NW,315,0.0,0.0,93,0.00,BKN,,0.00,79.0,WeatherDisplay:10.37,2013-01-14 08:54:00,
2013-01-14 09:59:00,25.5,23.7,29.96,WNW,294,0.4,3.5,93,0.00,SCT,,0.00,98.0,WeatherDisplay:10.37,2013-01-14 08:59:00,
2013-01-14 10:04:00,25.7,23.9,29.96,NW,305,0.0,0.0,93,0.00,SCT,,0.00,102.0,WeatherDisplay:10.37,2013-01-14 09:04:00,
2013-01-14 10:09:00,25.9,24.1,29.96,WNW,300,0.0,1.1,93,0.00,SCT,,0.00,123.0,WeatherDisplay:10.37,2013-01-14 09:09:00,
2013-01-14 10:14:00,26.1,24.3,29.96,WNW,292,0.0,0.0,93,0.00,FEW,,0.00,155.0,WeatherDisplay:10.37,2013-01-14 09:14:00,
2013-01-14 10:19:00,26.3,24.5,29.96,NW,317,0.0,0.0,93,0.00,SCT,,0.00,148.0,WeatherDisplay:10.37,2013-01-14 09:19:00,
2013-01-14 10:24:00,26.5,24.7,29.96,South,176,0.0,0.0,93,0.00,SCT,,0.00,128.0,WeatherDisplay:10.37,2013-01-14 09:24:00,
2013-01-14 10:29:00,26.9,25.1,29.96,South,176,0.0,0.0,93,0.00,BKN,,0.00,102.0,WeatherDisplay:10.37,2013-01-14 09:29:00,
2013-01-14 10:34:00,27.1,25.1,29.96,South,172,3.7,4.6,92,0.00,BKN,,0.00,116.0,WeatherDisplay:10.37,2013-01-14 09:34:00,
2013-01-14 10:39:00,27.3,25.3,29.96,SW,217,1.0,3.5,92,0.00,BKN,,0.00,134.0,WeatherDisplay:10.37,2013-01-14 09:39:00,
2013-01-14 10:44:00,27.4,25.1,29.96,SSE,166,3.0,7.0,91,0.00,SCT,,0.00,132.0,WeatherDisplay:10.37,2013-01-14 09:44:00,
2013-01-14 10:49:00,27.5,24.9,29.96,SSE,156,0.0,0.0,90,0.00,BKN,,0.00,127.0,WeatherDisplay:10.37,2013-01-14 09:49:00,
2013-01-14 10:54:00,27.6,25.0,29.96,South,187,3.1,3.5,90,0.00,SCT,,0.00,179.0,WeatherDisplay:10.37,2013-01-14 09:54:00,
2013-01-14 10:59:00,27.7,24.9,29.96,South,186,1.3,3.5,89,0.00,SCT,,0.00,153.0,WeatherDisplay:10.37,2013-01-14 09:59:00,
2013-01-14 11:04:00,28.0,25.2,29.96,South,183,6.0,8.1,89,0.00,SCT,,0.00,160.0,WeatherDisplay:10.37,2013-01-14 10:04:00,
2013-01-14 11:09:00,28.1,25.3,29.96,South,181,5.0,8.1,89,0.00,BKN,,0.00,121.0,WeatherDisplay:10.37,2013-01-14 10:09:00,
2013-01-14 11:14:00,28.2,25.1,29.95,South,179,3.0,4.0,88,0.00,BKN,,0.00,105.0,WeatherDisplay:10.37,2013-01-14 10:14:00,
2013-01-14 11:19:00,28.2,25.1,29.95,South,173,4.7,6.9,88,0.00,BKN,,0.00,100.0,WeatherDisplay:10.37,2013-01-14 10:19:00,
2013-01-14 11:24:00,28.2,24.8,29.95,South,179,5.4,8.1,87,0.00,BKN,,0.00,105.0,WeatherDisplay:10.37,2013-01-14 10:24:00,
2013-01-14 11:29:00,28.2,24.8,29.95,South,180,1.3,3.5,87,0.00,BKN,,0.00,113.0,WeatherDisplay:10.37,2013-01-14 10:29:00,
2013-01-14 11:34:00,28.3,24.9,29.95,SSE,163,2.0,5.8,87,0.00,SCT,,0.00,169.0,WeatherDisplay:10.37,2013-01-14 10:34:00,
2013-01-14 11:39:00,28.3,24.9,29.95,SSE,153,2.5,5.0,87,0.00,SCT,,0.00,162.0,WeatherDisplay:10.37,2013-01-14 10:39:00,
2013-01-14 11:44:00,28.3,24.6,29.94,ESE,122,4.7,4.7,86,0.00,SCT,,0.00,156.0,WeatherDisplay:10.37,2013-01-14 10:44:00,
2013-01-14 11:49:00,28.5,24.8,29.94,SE,126,1.8,4.6,86,0.00,BKN,,0.00,174.0,WeatherDisplay:10.37,2013-01-14 10:49:00,
2013-01-14 11:54:00,28.6,24.9,29.94,SE,127,2.2,3.5,86,0.00,BKN,,0.00,174.0,WeatherDisplay:10.37,2013-01-14 10:54:00,
2013-01-14 11:59:00,28.7,25.0,29.94,SE,141,5.7,8.1,86,0.00,SCT,,0.00,183.0,WeatherDisplay:10.37,2013-01-14 10:59:00,
2013-01-14 12:04:00,28.8,24.8,29.93,SSE,153,5.4,5.8,85,0.00,SCT,,0.00,206.0,WeatherDisplay:10.37,2013-01-14 11:04:00,
2013-01-14 12:09:00,29.0,25.0,29.93,SSE,151,5.9,6.9,85,0.00,SCT,,0.00,213.0,WeatherDisplay:10.37,2013-01-14 11:09:00,
2013-01-14 12:14:00,29.2,25.2,29.93,SE,144,4.9,7.0,85,0.00,SCT,,0.00,214.0,WeatherDisplay:10.37,2013-01-14 11:14:00,
2013-01-14 12:19:00,29.3,25.3,29.92,SSE,147,7.1,8.1,85,0.00,SCT,,0.00,206.0,WeatherDisplay:10.37,2013-01-14 11:19:00,
2013-01-14 12:24:00,29.4,25.1,29.92,SE,146,6.2,8.1,84,0.00,BKN,,0.00,169.0,WeatherDisplay:10.37,2013-01-14 11:24:00,
2013-01-14 12:29:00,29.4,24.9,29.92,SSE,152,5.1,5.8,83,0.00,BKN,,0.00,185.0,WeatherDisplay:10.37,2013-01-14 11:29:00,
2013-01-14 12:34:00,29.6,25.1,29.92,SSE,147,4.9,5.8,83,0.00,SCT,,0.00,265.0,WeatherDisplay:10.37,2013-01-14 11:34:00,
2013-01-14 12:39:00,29.8,25.2,29.92,SE,140,7.1,9.2,83,0.00,FEW,,0.00,281.0,WeatherDisplay:10.37,2013-01-14 11:39:00,
2013-01-14 12:44:00,29.8,25.0,29.91,SE,124,6.0,8.1,82,0.00,SCT,,0.00,281.0,WeatherDisplay:10.37,2013-01-14 11:44:00,
2013-01-14 12:49:00,29.9,24.8,29.91,SE,128,6.0,6.0,81,0.00,FEW,,0.00,281.0,WeatherDisplay:10.37,2013-01-14 11:49:00,
2013-01-14 12:54:00,30.1,25.0,29.91,SE,132,3.8,6.9,81,0.00,SCT,,0.00,207.0,WeatherDisplay:10.37,2013-01-14 11:54:00,
2013-01-14 12:59:00,30.1,24.7,29.90,SSE,158,4.8,6.9,80,0.00,OVC,,0.00,90.0,WeatherDisplay:10.37,2013-01-14 11:59:00,
2013-01-14 13:04:00,30.1,24.7,29.90,SE,146,5.4,6.0,80,0.00,OVC,,0.00,100.0,WeatherDisplay:10.37,2013-01-14 12:04:00,
2013-01-14 13:09:00,30.1,24.7,29.90,SE,144,0.2,1.0,80,0.00,BKN,,0.00,95.0,WeatherDisplay:10.37,2013-01-14 12:09:00,
2013-01-14 13:14:00,30.1,24.7,29.90,SSE,155,2.9,5.8,80,0.00,-SN,,0.00,100.0,WeatherDisplay:10.37,2013-01-14 12:14:00,
2013-01-14 13:19:00,30.2,25.1,29.90,SSE,156,3.7,5.0,81,0.00,-SN,,0.00,105.0,WeatherDisplay:10.37,2013-01-14 12:19:00,
2013-01-14 13:24:00,30.4,25.5,29.90,SSE,160,2.8,6.9,82,0.00,-SN,,0.00,60.0,WeatherDisplay:10.37,2013-01-14 12:24:00,
2013-01-14 13:29:00,30.5,25.6,29.89,South,169,2.3,5.8,82,0.00,-SN,,0.00,86.0,WeatherDisplay:10.37,2013-01-14 12:29:00,
2013-01-14 13:34:00,30.5,25.6,29.89,SSE,153,3.8,4.0,82,0.00,-SN,,0.00,74.0,WeatherDisplay:10.37,2013-01-14 12:34:00,
2013-01-14 13:39:00,30.4,25.8,29.88,SSE,150,5.1,5.1,83,0.00,-SN,,0.00,74.0,WeatherDisplay:10.37,2013-01-14 12:39:00,
2013-01-14 13:44:00,30.4,26.1,29.88,South,175,1.3,6.0,84,0.00,-SN,,0.00,67.0,WeatherDisplay:10.37,2013-01-14 12:44:00,
2013-01-14 13:49:00,30.4,26.4,29.88,South,178,3.1,3.5,85,0.00,-SN,,0.00,63.0,WeatherDisplay:10.37,2013-01-14 12:49:00,
2013-01-14 13:54:00,30.4,26.4,29.88,South,178,3.2,3.2,85,0.00,-SN,,0.00,62.0,WeatherDisplay:10.37,2013-01-14 12:54:00,
2013-01-14 13:59:00,30.3,26.6,29.88,SSE,158,1.8,4.6,86,0.00,-SN,,0.00,60.0,WeatherDisplay:10.37,2013-01-14 12:59:00,
2013-01-14 14:04:00,30.2,26.8,29.87,SSE,161,0.7,3.5,87,0.00,-SN,,0.00,53.0,WeatherDisplay:10.37,2013-01-14 13:04:00,
2013-01-14 14:09:00,30.3,27.2,29.87,SSE,162,1.3,2.3,88,0.00,-SN,,0.00,44.0,WeatherDisplay:10.37,2013-01-14 13:09:00,
2013-01-14 14:14:00,30.1,27.2,29.87,SSE,166,1.9,6.9,89,0.00,-SN,,0.00,33.0,WeatherDisplay:10.37,2013-01-14 13:14:00,
2013-01-14 14:19:00,30.1,27.2,29.87,SE,145,5.0,5.8,89,0.00,-SN,,0.00,26.0,WeatherDisplay:10.37,2013-01-14 13:19:00,
2013-01-14 14:24:00,30.1,27.5,29.87,SSE,150,0.2,1.1,90,0.00,-SN,,0.00,21.0,WeatherDisplay:10.37,2013-01-14 13:24:00,
2013-01-14 14:29:00,30.1,27.5,29.87,SSE,148,2.6,7.0,90,0.00,-SN,,0.00,30.0,WeatherDisplay:10.37,2013-01-14 13:29:00,
2013-01-14 14:34:00,30.1,27.5,29.87,South,181,0.0,0.0,90,0.00,-SN,,0.00,47.0,WeatherDisplay:10.37,2013-01-14 13:34:00,
2013-01-14 14:39:00,30.2,27.9,29.86,South,187,7.6,11.5,91,0.00,-SN,,0.00,44.0,WeatherDisplay:10.37,2013-01-14 13:39:00,
2013-01-14 14:44:00,30.4,28.1,29.86,South,174,8.7,8.7,91,0.00,-SN,,0.00,33.0,WeatherDisplay:10.37,2013-01-14 13:44:00,
2013-01-14 14:49:00,30.5,28.2,29.86,South,181,5.5,9.2,91,0.00,-SN,,0.00,32.0,WeatherDisplay:10.37,2013-01-14 13:49:00,
2013-01-14 14:54:00,30.5,28.2,29.86,South,174,5.6,6.9,91,0.00,-SN,,0.00,42.0,WeatherDisplay:10.37,2013-01-14 13:54:00,
2013-01-14 14:59:00,30.6,28.3,29.86,South,186,3.7,6.9,91,0.00,-SN,,0.00,42.0,WeatherDisplay:10.37,2013-01-14 13:59:00,
2013-01-14 15:04:00,30.7,28.4,29.86,South,180,5.3,9.2,91,0.00,-SN,,0.00,30.0,WeatherDisplay:10.37,2013-01-14 14:04:00,
2013-01-14 15:09:00,30.7,28.4,29.86,South,177,2.4,4.6,91,0.00,-SN,,0.00,32.0,WeatherDisplay:10.37,2013-01-14 14:09:00,
2013-01-14 15:14:00,30.6,28.5,29.86,South,182,6.1,10.4,92,0.00,-SN,,0.00,23.0,WeatherDisplay:10.37,2013-01-14 14:14:00,
2013-01-14 15:19:00,30.5,28.2,29.86,South,182,4.1,8.1,91,0.00,-SN,,0.00,30.0,WeatherDisplay:10.37,2013-01-14 14:19:00,
2013-01-14 15:24:00,30.5,28.4,29.86,South,177,6.0,10.0,92,0.00,-SN,,0.00,28.0,WeatherDisplay:10.37,2013-01-14 14:24:00,
2013-01-14 15:29:00,30.4,28.3,29.86,South,182,5.9,7.0,92,0.00,-SN,,0.00,37.0,WeatherDisplay:10.37,2013-01-14 14:29:00,
2013-01-14 15:34:00,30.4,28.3,29.85,South,180,3.8,6.9,92,0.00,-SN,,0.00,42.0,WeatherDisplay:10.37,2013-01-14 14:34:00,
2013-01-14 15:39:00,30.4,28.3,29.85,South,178,3.6,5.0,92,0.00,-SN,,0.00,33.0,WeatherDisplay:10.37,2013-01-14 14:39:00,
2013-01-14 15:44:00,30.5,28.4,29.85,South,180,1.9,3.5,92,0.00,-SN,,0.00,23.0,WeatherDisplay:10.37,2013-01-14 14:44:00,
2013-01-14 15:49:00,30.5,28.4,29.85,South,182,1.3,3.5,92,0.00,-SN,,0.00,19.0,WeatherDisplay:10.37,2013-01-14 14:49:00,
2013-01-14 15:54:00,30.4,28.3,29.85,SSW,194,2.3,5.0,92,0.00,-SN,,0.00,12.0,WeatherDisplay:10.37,2013-01-14 14:54:00,
2013-01-14 15:59:00,30.4,28.3,29.85,South,180,3.9,4.6,92,0.00,-SN,,0.00,14.0,WeatherDisplay:10.37,2013-01-14 14:59:00,
2013-01-14 16:04:00,30.3,28.5,29.85,South,184,6.1,8.1,93,0.00,-SN,,0.00,18.0,WeatherDisplay:10.37,2013-01-14 15:04:00,
2013-01-14 16:09:00,30.3,28.5,29.84,South,180,4.5,8.1,93,0.00,-SN,,0.00,32.0,WeatherDisplay:10.37,2013-01-14 15:09:00,
2013-01-14 16:14:00,30.3,28.5,29.84,South,183,2.4,4.6,93,0.00,-SN,,0.00,19.0,WeatherDisplay:10.37,2013-01-14 15:14:00,
2013-01-14 16:19:00,30.2,28.4,29.84,South,169,1.0,4.6,93,0.00,-SN,,0.00,9.0,WeatherDisplay:10.37,2013-01-14 15:19:00,
2013-01-14 16:24:00,30.1,28.3,29.84,SSE,161,3.8,3.8,93,0.00,-SN,,0.00,7.0,WeatherDisplay:10.37,2013-01-14 15:24:00,
2013-01-14 16:29:00,30.0,28.2,29.83,South,177,1.0,1.1,93,0.00,-SN,,0.00,9.0,WeatherDisplay:10.37,2013-01-14 15:29:00,
2013-01-14 16:34:00,29.9,28.1,29.83,SSE,165,3.4,5.8,93,0.00,-SN,,0.00,5.0,WeatherDisplay:10.37,2013-01-14 15:34:00,
2013-01-14 16:39:00,29.8,28.0,29.83,SSE,167,0.9,4.6,93,0.00,-SN,,0.00,0.0,WeatherDisplay:10.37,2013-01-14 15:39:00,
2013-01-14 16:44:00,29.7,27.9,29.83,South,169,2.1,4.0,93,0.00,-SN,,0.00,0.0,WeatherDisplay:10.37,2013-01-14 15:44:00,
2013-01-14 16:49:00,29.6,27.8,29.83,South,169,1.2,2.3,93,0.00,-SN,,0.00,0.0,WeatherDisplay:10.37,2013-01-14 15:49:00,
2013-01-14 16:54:00,29.5,27.7,29.83,South,169,0.0,6.9,93,0.00,-SN,,0.00,0.0,WeatherDisplay:10.37,2013-01-14 15:54:00,
2013-01-14 16:59:00,29.4,27.6,29.83,South,176,2.6,4.6,93,0.00,-SN,,0.00,0.0,WeatherDisplay:10.37,2013-01-14 15:59:00,
2013-01-14 17:04:00,29.4,27.6,29.83,South,182,4.0,4.6,93,0.00,-SN,,0.00,0.0,WeatherDisplay:10.37,2013-01-14 16:04:00,
2013-01-14 17:09:00,29.3,27.5,29.82,South,180,2.6,3.5,93,0.00,-SN,,0.00,0.0,WeatherDisplay:10.37,2013-01-14 16:09:00,
2013-01-14 17:14:00,29.2,27.4,29.82,South,180,0.9,2.3,93,0.00,-SN,,0.00,0.0,WeatherDisplay:10.37,2013-01-14 16:14:00,
2013-01-14 17:19:00,29.3,27.5,29.82,South,180,0.8,3.5,93,0.00,-SN,,0.00,0.0,WeatherDisplay:10.37,2013-01-14 16:19:00,
2013-01-14 17:24:00,29.3,27.5,29.83,South,170,1.5,6.0,93,0.00,-SN,,0.00,0.0,WeatherDisplay:10.37,2013-01-14 16:24:00,
2013-01-14 17:29:00,29.3,27.5,29.82,SSE,159,3.8,5.0,93,0.00,-SN,,0.00,0.0,WeatherDisplay:10.37,2013-01-14 16:29:00,
2013-01-14 17:34:00,29.3,27.5,29.82,SSE,155,4.9,8.1,93,0.00,-SN,,0.00,0.0,WeatherDisplay:10.37,2013-01-14 16:34:00,
2013-01-14 17:39:00,29.2,27.4,29.82,SSE,163,4.3,6.9,93,0.00,-SN,,0.00,0.0,WeatherDisplay:10.37,2013-01-14 16:39:00,
2013-01-14 17:44:00,29.2,27.4,29.82,SSE,151,2.9,4.6,93,0.00,-SN,,0.00,0.0,WeatherDisplay:10.37,2013-01-14 16:44:00,
2013-01-14 17:49:00,29.1,27.3,29.82,SSE,147,8.1,9.2,93,0.00,-SN,,0.00,0.0,WeatherDisplay:10.37,2013-01-14 16:49:00,
2013-01-14 17:54:00,29.0,27.2,29.81,SSE,156,1.5,7.0,93,0.00,BKN,,0.00,0.0,WeatherDisplay:10.37,2013-01-14 16:54:00,
2013-01-14 17:59:00,29.0,27.2,29.81,SSE,149,7.0,9.2,93,0.00,BKN,,0.00,0.0,WeatherDisplay:10.37,2013-01-14 16:59:00,
2013-01-14 18:04:00,28.9,27.1,29.81,SSE,155,7.1,8.1,93,0.00,BKN,,0.00,0.0,WeatherDisplay:10.37,2013-01-14 17:04:00,
2013-01-14 18:09:00,28.9,27.1,29.80,SSE,159,6.1,9.2,93,0.00,BKN,,0.00,0.0,WeatherDisplay:10.37,2013-01-14 17:09:00,
2013-01-14 18:14:00,28.9,27.1,29.80,SSE,161,6.8,6.9,93,0.00,BKN,,0.00,0.0,WeatherDisplay:10.37,2013-01-14 17:14:00,
2013-01-14 18:24:00,28.7,26.7,29.80,SE,146,10.0,10.4,92,0.00,BKN,,0.00,0.0,WeatherDisplay:10.37,2013-01-14 17:24:00,
2013-01-14 18:29:00,28.6,26.6,29.80,SSE,155,8.5,12.7,92,0.00,BKN,,0.00,0.0,WeatherDisplay:10.37,2013-01-14 17:29:00,
2013-01-14 18:34:00,28.6,26.6,29.80,SSE,153,6.5,9.0,92,0.00,BKN,,0.00,0.0,WeatherDisplay:10.37,2013-01-14 17:34:00,
2013-01-14 18:39:00,28.7,26.7,29.79,SSE,151,6.9,9.2,92,0.00,BKN,,0.00,0.0,WeatherDisplay:10.37,2013-01-14 17:39:00,
2013-01-14 18:44:00,28.6,26.6,29.79,SE,135,8.3,11.5,92,0.00,BKN,,0.00,0.0,WeatherDisplay:10.37,2013-01-14 17:44:00,
2013-01-14 18:49:00,28.5,26.5,29.79,SE,145,8.9,15.0,92,0.00,BKN,,0.00,0.0,WeatherDisplay:10.37,2013-01-14 17:49:00,
2013-01-14 18:54:00,28.5,26.5,29.79,SSE,158,9.3,11.5,92,0.00,-SN,,0.00,0.0,WeatherDisplay:10.37,2013-01-14 17:54:00,
2013-01-14 18:59:00,28.5,26.2,29.79,SE,146,3.8,8.0,91,0.00,-SN,,0.00,0.0,WeatherDisplay:10.37,2013-01-14 17:59:00,
2013-01-14 19:04:00,28.5,26.2,29.78,South,181,5.9,6.9,91,0.00,-SN,,0.00,0.0,WeatherDisplay:10.37,2013-01-14 18:04:00,
2013-01-14 19:09:00,28.5,26.2,29.78,SSE,157,8.0,12.7,91,0.00,-SN,,0.00,0.0,WeatherDisplay:10.37,2013-01-14 18:09:00,
2013-01-14 19:14:00,28.5,26.2,29.78,SE,146,6.3,6.9,91,0.00,-SN,,0.00,0.0,WeatherDisplay:10.37,2013-01-14 18:14:00,
2013-01-14 19:19:00,28.6,26.3,29.78,SSE,150,9.1,9.2,91,0.00,-SN,,0.00,0.0,WeatherDisplay:10.37,2013-01-14 18:19:00,
2013-01-14 19:24:00,28.6,26.3,29.77,SSE,149,9.4,11.5,91,0.00,-SN,,0.00,0.0,WeatherDisplay:10.37,2013-01-14 18:24:00,
2013-01-14 19:29:00,28.6,26.0,29.77,SE,144,9.5,11.5,90,0.00,-SN,,0.00,0.0,WeatherDisplay:10.37,2013-01-14 18:29:00,
2013-01-14 19:34:00,28.6,26.0,29.77,SSE,147,9.1,11.5,90,0.00,-SN,,0.00,0.0,WeatherDisplay:10.37,2013-01-14 18:34:00,
2013-01-14 19:39:00,28.6,26.0,29.77,SSE,153,10.1,10.1,90,0.00,-SN,,0.00,0.0,WeatherDisplay:10.37,2013-01-14 18:39:00,
2013-01-14 19:44:00,28.6,26.0,29.77,SSE,157,9.3,11.5,90,0.00,-SN,,0.00,0.0,WeatherDisplay:10.37,2013-01-14 18:44:00,
2013-01-14 19:49:00,28.5,25.9,29.76,SE,144,10.1,11.5,90,0.00,-SN,,0.00,0.0,WeatherDisplay:10.37,2013-01-14 18:49:00,
2013-01-14 19:54:00,28.5,25.9,29.76,SE,142,11.0,15.0,90,0.00,-SN,,0.00,0.0,WeatherDisplay:10.37,2013-01-14 18:54:00,
2013-01-14 19:59:00,28.4,25.8,29.76,SSE,151,8.5,11.5,90,0.00,-SN,,0.00,0.0,WeatherDisplay:10.37,2013-01-14 18:59:00,
2013-01-14 20:04:00,28.4,25.8,29.75,SSE,148,9.4,12.0,90,0.00,-SN,,0.00,0.0,WeatherDisplay:10.37,2013-01-14 19:04:00,
2013-01-14 20:09:00,28.4,25.8,29.75,SE,142,8.1,12.7,90,0.00,-SN,,0.00,0.0,WeatherDisplay:10.37,2013-01-14 19:09:00,
2013-01-14 20:14:00,28.5,25.7,29.75,SE,146,7.9,11.5,89,0.00,-SN,,0.00,0.0,WeatherDisplay:10.37,2013-01-14 19:14:00,
2013-01-14 20:19:00,28.5,25.7,29.75,SSE,149,9.8,13.8,89,0.00,-SN,,0.00,0.0,WeatherDisplay:10.37,2013-01-14 19:19:00,
2013-01-14 20:24:00,28.6,25.8,29.74,SSE,152,9.2,12.0,89,0.00,-SN,,0.00,0.0,WeatherDisplay:10.37,2013-01-14 19:24:00,
2013-01-14 20:29:00,28.6,25.8,29.74,SSE,154,8.5,9.2,89,0.00,-SN,,0.00,0.0,WeatherDisplay:10.37,2013-01-14 19:29:00,
2013-01-14 20:34:00,28.6,25.8,29.74,SE,145,8.1,13.0,89,0.00,-SN,,0.00,0.0,WeatherDisplay:10.37,2013-01-14 19:34:00,
2013-01-14 20:39:00,28.6,25.8,29.74,SE,144,11.7,15.0,89,0.00,-SN,,0.00,0.0,WeatherDisplay:10.37,2013-01-14 19:39:00,
2013-01-14 20:44:00,28.6,25.8,29.74,SE,142,9.9,11.5,89,0.00,-SN,,0.00,0.0,WeatherDisplay:10.37,2013-01-14 19:44:00,
2013-01-14 20:49:00,28.6,25.8,29.74,SSE,154,10.0,11.5,89,0.00,-SN,,0.00,0.0,WeatherDisplay:10.37,2013-01-14 19:49:00,
2013-01-14 20:54:00,28.5,25.9,29.73,SSE,149,10.7,15.0,90,0.00,-SN,,0.00,0.0,WeatherDisplay:10.37,2013-01-14 19:54:00,
2013-01-14 20:59:00,28.5,25.7,29.73,SE,124,11.4,13.8,89,0.00,-SN,,0.00,0.0,WeatherDisplay:10.37,2013-01-14 19:59:00,
2013-01-14 21:09:00,28.5,25.7,29.73,SE,136,10.9,15.0,89,0.00,-SN,,0.00,0.0,WeatherDisplay:10.37,2013-01-14 20:09:00,
2013-01-14 21:14:00,28.3,25.7,29.72,SE,131,8.6,17.0,90,0.00,-SN,,0.00,0.0,WeatherDisplay:10.37,2013-01-14 20:14:00,
2013-01-14 21:19:00,28.3,25.7,29.72,SE,142,10.8,12.7,90,0.00,-SN,,0.00,0.0,WeatherDisplay:10.37,2013-01-14 20:19:00,
2013-01-14 21:24:00,28.3,26.0,29.72,SE,134,7.3,10.4,91,0.00,-SN,,0.00,0.0,WeatherDisplay:10.37,2013-01-14 20:24:00,
2013-01-14 21:29:00,28.3,26.0,29.72,ESE,122,7.9,9.2,91,0.00,-SN,,0.00,0.0,WeatherDisplay:10.37,2013-01-14 20:29:00,
2013-01-14 21:34:00,28.3,26.0,29.71,SE,138,8.6,10.0,91,0.00,-SN,,0.00,0.0,WeatherDisplay:10.37,2013-01-14 20:34:00,
2013-01-14 21:39:00,28.3,26.0,29.71,SE,134,9.0,12.7,91,0.00,-SN,,0.00,0.0,WeatherDisplay:10.37,2013-01-14 20:39:00,
2013-01-14 21:44:00,28.3,26.0,29.71,SE,146,7.3,9.0,91,0.00,-SN,,0.00,0.0,WeatherDisplay:10.37,2013-01-14 20:44:00,
2013-01-14 21:49:00,28.3,26.0,29.70,SE,138,6.9,6.9,91,0.00,-SN,,0.00,0.0,WeatherDisplay:10.37,2013-01-14 20:49:00,
2013-01-14 21:54:00,28.3,26.0,29.70,SE,144,8.2,11.5,91,0.00,-SN,,0.00,0.0,WeatherDisplay:10.37,2013-01-14 20:54:00,
2013-01-14 21:59:00,28.3,26.0,29.70,SE,137,11.0,11.0,91,0.00,-SN,,0.00,0.0,WeatherDisplay:10.37,2013-01-14 20:59:00,
2013-01-14 22:04:00,28.3,26.0,29.70,SE,139,9.7,17.3,91,0.00,-SN,,0.00,0.0,WeatherDisplay:10.37,2013-01-14 21:04:00,
2013-01-14 22:09:00,28.3,26.3,29.69,SE,126,7.1,11.5,92,0.00,-SN,,0.00,0.0,WeatherDisplay:10.37,2013-01-14 21:09:00,
2013-01-14 22:14:00,28.2,26.2,29.69,SSE,151,9.4,13.8,92,0.00,-SN,,0.00,0.0,WeatherDisplay:10.37,2013-01-14 21:14:00,
2013-01-14 22:19:00,28.2,26.2,29.69,SE,141,10.2,16.1,92,0.00,-SN,,0.00,0.0,WeatherDisplay:10.37,2013-01-14 21:19:00,
2013-01-14 22:24:00,28.1,26.3,29.69,SE,130,8.4,15.0,93,0.00,-SN,,0.00,0.0,WeatherDisplay:10.37,2013-01-14 21:24:00,
2013-01-14 22:29:00,28.1,26.3,29.68,SE,132,8.1,11.5,93,0.00,-SN,,0.00,0.0,WeatherDisplay:10.37,2013-01-14 21:29:00,
2013-01-14 22:34:00,28.1,26.3,29.68,SE,142,8.7,15.0,93,0.00,-SN,,0.00,0.0,WeatherDisplay:10.37,2013-01-14 21:34:00,
2013-01-14 22:39:00,28.1,26.3,29.67,East,101,8.7,13.0,93,0.00,-SN,,0.00,0.0,WeatherDisplay:10.37,2013-01-14 21:39:00,
2013-01-14 22:44:00,28.0,26.2,29.67,ESE,115,6.7,11.5,93,0.00,-SN,,0.00,0.0,WeatherDisplay:10.37,2013-01-14 21:44:00,
2013-01-14 22:49:00,28.1,26.3,29.66,ESE,107,7.3,11.5,93,0.00,-SN,,0.00,0.0,WeatherDisplay:10.37,2013-01-14 21:49:00,
2013-01-14 22:54:00,28.1,26.6,29.66,SE,132,9.9,12.7,94,0.00,-SN,,0.00,0.0,WeatherDisplay:10.37,2013-01-14 21:54:00,
2013-01-14 22:59:00,28.1,26.6,29.66,ESE,123,7.2,8.0,94,0.00,-SN,,0.00,0.0,WeatherDisplay:10.37,2013-01-14 21:59:00,
2013-01-14 23:04:00,28.1,26.6,29.66,ESE,109,7.4,7.4,94,0.00,-SN,,0.00,0.0,WeatherDisplay:10.37,2013-01-14 22:04:00,
2013-01-14 23:09:00,28.2,26.7,29.66,ESE,112,7.4,11.5,94,0.00,-SN,,0.00,0.0,WeatherDisplay:10.37,2013-01-14 22:09:00,
2013-01-14 23:14:00,28.2,26.7,29.66,ESE,113,9.1,12.0,94,0.00,-SN,,0.00,0.0,WeatherDisplay:10.37,2013-01-14 22:14:00,
2013-01-14 23:19:00,28.1,26.6,29.65,ESE,117,8.7,10.4,94,0.00,-SN,,0.00,0.0,WeatherDisplay:10.37,2013-01-14 22:19:00,
2013-01-14 23:24:00,28.2,26.7,29.65,SE,139,9.0,9.2,94,0.00,-SN,,0.00,0.0,WeatherDisplay:10.37,2013-01-14 22:24:00,
2013-01-14 23:29:00,28.2,26.7,29.65,ESE,119,9.6,11.5,94,0.00,-SN,,0.00,0.0,WeatherDisplay:10.37,2013-01-14 22:29:00,
2013-01-14 23:34:00,28.3,26.8,29.65,SE,129,10.6,16.1,94,0.00,-SN,,0.00,0.0,WeatherDisplay:10.37,2013-01-14 22:34:00,
2013-01-14 23:35:00,28.3,27.0,29.64,ESE,119,9.8,16.1,95,0.00,BKN,,0.00,0.0,WeatherDisplay:10.37,2013-01-14 22:35:00,
2013-01-14 23:36:00,28.3,27.0,29.64,ESE,121,9.7,11.5,95,0.00,BKN,,0.00,0.0,WeatherDisplay:10.37,2013-01-14 22:36:00,
2013-01-14 23:37:00,28.3,27.0,29.64,East,97,8.4,11.5,95,0.00,BKN,,0.00,0.0,WeatherDisplay:10.37,2013-01-14 22:37:00,
2013-01-14 23:38:00,28.3,27.0,29.64,ESE,111,9.2,9.2,95,0.00,BKN,,0.00,0.0,WeatherDisplay:10.37,2013-01-14 22:38:00,
2013-01-14 23:39:00,28.3,27.0,29.64,ESE,109,9.5,13.8,95,0.00,-SN,,0.00,0.0,WeatherDisplay:10.37,2013-01-14 22:39:00,
2013-01-14 23:40:00,28.3,27.0,29.64,SE,129,7.3,14.0,95,0.00,BKN,,0.00,0.0,WeatherDisplay:10.37,2013-01-14 22:40:00,
2013-01-14 23:53:00,28.3,27.0,29.64,ESE,115,7.8,12.7,95,0.00,BKN,,0.00,0.0,WeatherDisplay:10.37,2013-01-14 22:53:00,
2013-01-14 23:58:00,28.3,27.0,29.64,ESE,107,9.7,13.8,95,0.00,BKN,,0.00,0.0,WeatherDisplay:10.37,2013-01-14 22:58:00,